createdAt,value
2023-05-17T00:00:18.585Z,51.01
2023-05-17T00:02:45.072Z,50.98
2023-05-17T00:05:14.153Z,50.99
2023-05-17T00:07:40.721Z,51.26
2023-05-17T00:10:07.710Z,51.55
2023-05-17T00:12:34.603Z,51.29
2023-05-17T00:15:01.150Z,51.17
2023-05-17T00:17:27.665Z,51.11
2023-05-17T00:19:54.128Z,51.43
2023-05-17T00:22:20.649Z,51.00
2023-05-17T00:24:47.118Z,51.20
2023-05-17T00:27:14.130Z,51.26
2023-05-17T00:29:41.229Z,51.30
2023-05-17T00:32:07.820Z,51.24
2023-05-17T00:34:34.303Z,51.40
2023-05-17T00:37:00.848Z,51.40
2023-05-17T00:39:27.348Z,51.56
2023-05-17T00:41:53.859Z,51.72
2023-05-17T00:44:20.381Z,51.53
2023-05-17T00:46:46.887Z,51.48
2023-05-17T00:49:13.437Z,51.39
2023-05-17T00:51:40.538Z,51.39
2023-05-17T00:54:07.062Z,51.64
2023-05-17T00:56:33.630Z,51.66
2023-05-17T00:59:04.901Z,52.02
2023-05-17T01:01:31.710Z,51.83
2023-05-17T01:03:58.219Z,51.71
2023-05-17T01:06:24.933Z,51.57
2023-05-17T01:08:51.750Z,51.97
2023-05-17T01:11:31.451Z,51.75
2023-05-17T01:14:38.221Z,51.81
2023-05-17T01:17:12.350Z,51.99
2023-05-17T01:19:58.398Z,52.12
2023-05-17T01:22:47.348Z,52.05
2023-05-17T01:25:42.495Z,52.21
2023-05-17T01:28:10.629Z,52.07
2023-05-17T01:30:38.413Z,52.11
2023-05-17T01:33:05.984Z,52.11
2023-05-17T01:35:33.060Z,52.13
2023-05-17T01:37:59.628Z,52.11
2023-05-17T01:40:26.308Z,52.33
2023-05-17T01:42:58.162Z,52.26
2023-05-17T01:45:30.697Z,52.03
2023-05-17T01:48:23.671Z,52.33
2023-05-17T01:50:53.070Z,52.18
2023-05-17T01:53:40.462Z,52.01
2023-05-17T01:56:10.626Z,52.25
2023-05-17T01:58:46.744Z,52.13
2023-05-17T02:01:15.736Z,52.28
2023-05-17T02:03:42.790Z,52.40
2023-05-17T02:06:09.302Z,52.39
2023-05-17T02:08:35.810Z,52.32
2023-05-17T02:11:02.342Z,52.41
2023-05-17T02:13:30.706Z,52.41
2023-05-17T02:16:03.513Z,52.37
2023-05-17T02:18:30.825Z,52.43
2023-05-17T02:20:57.388Z,52.39
2023-05-17T02:23:24.990Z,52.35
2023-05-17T02:25:52.557Z,52.29
2023-05-17T02:28:19.076Z,52.35
2023-05-17T02:30:46.097Z,52.01
2023-05-17T02:33:13.350Z,52.23
2023-05-17T02:35:39.944Z,52.11
2023-05-17T02:38:06.523Z,52.27
2023-05-17T02:40:32.986Z,52.32
2023-05-17T02:43:02.114Z,52.27
2023-05-17T02:45:28.768Z,52.29
2023-05-17T02:47:55.649Z,52.27
2023-05-17T02:50:22.215Z,52.28
2023-05-17T02:52:48.735Z,52.08
2023-05-17T02:55:15.470Z,52.35
2023-05-17T02:57:41.984Z,52.33
2023-05-17T03:00:09.529Z,52.52
2023-05-17T03:02:36.381Z,52.30
2023-05-17T03:05:04.985Z,52.44
2023-05-17T03:07:32.107Z,52.45
2023-05-17T03:09:58.650Z,52.41
2023-05-17T03:12:29.656Z,52.33
2023-05-17T03:14:57.156Z,52.47
2023-05-17T03:17:24.221Z,52.36
2023-05-17T03:19:50.779Z,52.49
2023-05-17T03:22:17.443Z,52.26
2023-05-17T03:24:43.935Z,52.18
2023-05-17T03:27:10.652Z,52.29
2023-05-17T03:29:37.200Z,52.28
2023-05-17T03:32:04.812Z,52.34
2023-05-17T03:34:31.522Z,52.50
2023-05-17T03:36:58.349Z,52.49
2023-05-17T03:39:24.936Z,52.37
2023-05-17T03:41:51.421Z,52.45
2023-05-17T03:44:18.196Z,52.42
2023-05-17T03:46:44.806Z,52.80
2023-05-17T03:49:11.779Z,52.53
2023-05-17T03:51:38.976Z,52.50
2023-05-17T03:54:06.164Z,52.53
2023-05-17T03:56:33.016Z,52.47
2023-05-17T03:58:59.493Z,52.64
2023-05-17T04:01:26.721Z,52.45
2023-05-17T04:03:53.415Z,52.65
2023-05-17T04:06:21.492Z,52.68
2023-05-17T04:08:48.013Z,52.49
2023-05-17T04:11:14.451Z,52.76
2023-05-17T04:13:42.167Z,52.65
2023-05-17T04:16:10.070Z,52.53
2023-05-17T04:18:39.152Z,52.52
2023-05-17T04:21:06.188Z,52.75
2023-05-17T04:23:34.863Z,52.64
2023-05-17T04:26:03.216Z,52.62
2023-05-17T04:28:32.426Z,52.52
2023-05-17T04:30:58.895Z,52.39
2023-05-17T04:33:26.814Z,52.49
2023-05-17T04:35:56.792Z,52.51
2023-05-17T04:38:24.864Z,52.47
2023-05-17T04:40:51.435Z,52.60
2023-05-17T04:43:18.519Z,52.35
2023-05-17T04:45:46.524Z,52.60
2023-05-17T04:48:13.360Z,52.70
2023-05-17T04:50:39.997Z,52.66
2023-05-17T04:53:06.506Z,52.78
2023-05-17T04:55:35.908Z,52.74
2023-05-17T04:58:02.452Z,52.74
2023-05-17T05:00:30.013Z,52.73
2023-05-17T05:03:04.665Z,52.71
2023-05-17T05:05:31.553Z,52.78
2023-05-17T05:07:58.565Z,52.71
2023-05-17T05:10:25.116Z,52.76
2023-05-17T05:12:51.963Z,52.58
2023-05-17T05:15:19.088Z,52.40
2023-05-17T05:17:52.262Z,52.68
2023-05-17T05:20:20.056Z,52.68
2023-05-17T05:22:46.561Z,52.60
2023-05-17T05:25:14.261Z,52.89
2023-05-17T05:27:40.727Z,52.74
2023-05-17T05:30:08.571Z,52.71
2023-05-17T05:32:37.857Z,52.99
2023-05-17T05:35:05.657Z,52.78
2023-05-17T05:37:32.177Z,52.65
2023-05-17T05:39:59.433Z,52.51
2023-05-17T05:42:27.559Z,52.28
2023-05-17T05:44:54.155Z,52.39
2023-05-17T05:47:22.185Z,52.39
2023-05-17T05:49:48.772Z,52.49
2023-05-17T05:52:15.248Z,52.41
2023-05-17T05:54:42.462Z,52.12
2023-05-17T05:57:09.024Z,51.76
2023-05-17T05:59:35.605Z,51.56
2023-05-17T06:02:02.486Z,51.40
2023-05-17T06:04:36.832Z,51.07
2023-05-17T06:07:10.908Z,50.60
2023-05-17T06:09:37.367Z,50.14
2023-05-17T06:12:03.971Z,50.07
2023-05-17T06:14:30.548Z,49.82
2023-05-17T06:16:56.959Z,49.91
2023-05-17T06:19:23.644Z,49.89
2023-05-17T06:21:50.251Z,49.76
2023-05-17T06:24:16.950Z,49.75
2023-05-17T06:26:47.165Z,49.83
2023-05-17T06:29:13.721Z,49.54
2023-05-17T06:31:40.359Z,49.64
2023-05-17T06:34:06.955Z,49.52
2023-05-17T06:36:35.949Z,49.62
2023-05-17T06:39:04.117Z,49.77
2023-05-17T06:41:30.693Z,49.82
2023-05-17T06:43:57.225Z,49.71
2023-05-17T06:46:23.687Z,49.62
2023-05-17T06:48:51.398Z,49.10
2023-05-17T06:51:18.220Z,48.92
2023-05-17T06:53:44.827Z,48.89
2023-05-17T06:56:11.399Z,48.45
2023-05-17T06:58:37.863Z,48.28
2023-05-17T07:01:04.482Z,48.52
2023-05-17T07:03:31.093Z,48.37
2023-05-17T07:05:57.764Z,47.95
2023-05-17T07:08:24.286Z,47.68
2023-05-17T07:10:52.258Z,47.46
2023-05-17T07:13:19.040Z,47.40
2023-05-17T07:15:46.111Z,47.43
2023-05-17T07:18:15.175Z,47.49
2023-05-17T07:20:41.753Z,47.58
2023-05-17T07:23:08.424Z,47.64
2023-05-17T07:25:38.530Z,47.63
2023-05-17T07:28:05.253Z,47.85
2023-05-17T07:30:31.771Z,48.00
2023-05-17T07:32:58.300Z,48.26
2023-05-17T07:35:24.817Z,48.29
2023-05-17T07:37:51.415Z,48.20
2023-05-17T07:40:18.380Z,48.21
2023-05-17T07:42:44.880Z,48.28
2023-05-17T07:45:11.515Z,48.33
2023-05-17T07:47:38.086Z,48.21
2023-05-17T07:50:05.218Z,48.29
2023-05-17T07:52:31.720Z,48.15
2023-05-17T07:54:58.278Z,48.48
2023-05-17T07:57:24.856Z,48.33
2023-05-17T07:59:51.456Z,48.44
2023-05-17T08:02:17.973Z,48.42
2023-05-17T08:04:45.202Z,48.15
2023-05-17T08:07:12.159Z,47.81
2023-05-17T08:09:40.217Z,47.54
2023-05-17T08:12:06.776Z,47.39
2023-05-17T08:14:33.286Z,47.34
2023-05-17T08:16:59.734Z,47.13
2023-05-17T08:19:26.704Z,47.01
2023-05-17T08:21:53.303Z,47.12
2023-05-17T08:24:19.770Z,45.90
2023-05-17T08:26:46.242Z,45.44
2023-05-17T08:29:12.683Z,45.13
2023-05-17T08:31:39.249Z,45.35
2023-05-17T08:34:05.944Z,45.22
2023-05-17T08:36:32.515Z,45.09
2023-05-17T08:38:59.030Z,45.03
2023-05-17T08:41:25.525Z,45.34
2023-05-17T08:43:52.810Z,45.29
2023-05-17T08:46:21.660Z,45.29
2023-05-17T08:48:51.923Z,45.30
2023-05-17T08:51:19.603Z,45.41
2023-05-17T08:53:47.516Z,45.50
2023-05-17T08:56:16.484Z,45.16
2023-05-17T08:58:56.158Z,45.14
2023-05-17T09:01:26.068Z,44.77
2023-05-17T09:03:53.828Z,45.01
2023-05-17T09:06:21.587Z,45.26
2023-05-17T09:08:52.623Z,45.14
2023-05-17T09:11:27.847Z,45.10
2023-05-17T09:13:58.715Z,45.19
2023-05-17T09:16:26.535Z,45.26
2023-05-17T09:18:57.358Z,45.03
2023-05-17T09:21:25.129Z,45.35
2023-05-17T09:24:02.253Z,45.43
2023-05-17T09:26:43.845Z,45.63
2023-05-17T09:29:15.495Z,45.30
2023-05-17T09:31:43.262Z,45.54
2023-05-17T09:34:10.464Z,45.14
2023-05-17T09:36:38.569Z,45.70
2023-05-17T09:39:10.687Z,45.63
2023-05-17T09:41:48.200Z,45.67
2023-05-17T09:44:16.352Z,45.81
2023-05-17T09:46:45.406Z,45.77
2023-05-17T09:49:12.815Z,45.77
2023-05-17T09:51:44.649Z,45.64
2023-05-17T09:54:12.014Z,45.97
2023-05-17T09:56:39.124Z,46.07
2023-05-17T09:59:12.417Z,46.14
2023-05-17T10:01:41.302Z,46.24
2023-05-17T10:04:12.002Z,45.67
2023-05-17T10:06:46.399Z,45.76
2023-05-17T10:09:15.728Z,45.68
2023-05-17T10:11:47.362Z,45.66
2023-05-17T10:14:23.230Z,45.75
2023-05-17T10:16:51.966Z,45.58
2023-05-17T10:19:20.820Z,45.72
2023-05-17T10:21:52.628Z,45.62
2023-05-17T10:24:21.595Z,45.35
2023-05-17T10:26:50.430Z,45.12
2023-05-17T10:29:17.227Z,45.35
2023-05-17T10:31:45.237Z,45.17
2023-05-17T10:34:15.775Z,45.18
2023-05-17T10:36:43.855Z,45.43
2023-05-17T10:39:11.340Z,45.63
2023-05-17T10:41:42.124Z,45.57
2023-05-17T10:44:12.279Z,45.92
2023-05-17T10:46:39.159Z,45.73
2023-05-17T10:49:06.140Z,45.53
2023-05-17T10:51:34.849Z,45.62
2023-05-17T10:54:12.284Z,45.39
2023-05-17T10:56:47.309Z,45.56
2023-05-17T10:59:24.359Z,45.77
2023-05-17T11:02:10.071Z,45.46
2023-05-17T11:04:44.871Z,45.27
2023-05-17T11:07:18.938Z,45.24
2023-05-17T11:10:03.604Z,45.20
2023-05-17T11:12:40.404Z,45.46
2023-05-17T11:15:17.282Z,45.45
2023-05-17T11:17:44.130Z,45.27
2023-05-17T11:20:31.942Z,45.06
2023-05-17T11:23:16.754Z,44.80
2023-05-17T11:25:43.153Z,44.49
2023-05-17T11:28:22.028Z,44.11
2023-05-17T11:30:52.086Z,44.20
2023-05-17T11:33:32.486Z,43.92
2023-05-17T11:36:06.881Z,43.99
2023-05-17T11:38:34.294Z,43.94
2023-05-17T11:41:26.678Z,44.28
2023-05-17T11:43:54.405Z,44.01
2023-05-17T11:46:24.052Z,44.12
2023-05-17T11:48:52.461Z,43.94
2023-05-17T11:51:21.318Z,43.72
2023-05-17T11:53:49.662Z,43.47
2023-05-17T11:56:16.367Z,43.55
2023-05-17T11:58:43.620Z,43.60
2023-05-17T12:01:13.519Z,43.30
2023-05-17T12:03:40.029Z,43.35
2023-05-17T12:06:07.725Z,43.29
2023-05-17T12:08:35.352Z,43.37
2023-05-17T12:11:02.822Z,43.39
2023-05-17T12:13:30.526Z,43.10
2023-05-17T12:16:02.456Z,42.92
2023-05-17T12:18:49.560Z,42.66
2023-05-17T12:21:18.117Z,43.19
2023-05-17T12:23:48.325Z,43.15
2023-05-17T12:26:18.076Z,43.34
2023-05-17T12:28:56.115Z,43.50
2023-05-17T12:31:28.214Z,43.35
2023-05-17T12:33:55.021Z,43.67
2023-05-17T12:36:22.509Z,43.35
2023-05-17T12:38:49.544Z,43.40
2023-05-17T12:41:16.872Z,43.48
2023-05-17T12:43:46.671Z,43.18
2023-05-17T12:46:18.948Z,42.89
2023-05-17T12:48:46.861Z,42.95
2023-05-17T12:51:15.855Z,43.05
2023-05-17T12:53:44.271Z,42.89
2023-05-17T12:56:19.480Z,42.88
2023-05-17T12:59:17.251Z,43.21
2023-05-17T13:01:46.906Z,43.44
2023-05-17T13:04:14.914Z,43.62
2023-05-17T13:06:53.201Z,43.59
2023-05-17T13:09:22.002Z,43.27
2023-05-17T13:11:58.991Z,43.12
2023-05-17T13:14:46.235Z,42.80
2023-05-17T13:17:24.118Z,42.84
2023-05-17T13:19:50.799Z,43.03
2023-05-17T13:22:17.495Z,42.98
2023-05-17T13:24:44.815Z,42.79
2023-05-17T13:27:12.145Z,42.90
2023-05-17T13:29:41.560Z,43.13
2023-05-17T13:32:10.083Z,43.09
2023-05-17T13:34:37.016Z,43.28
2023-05-17T13:37:04.689Z,42.97
2023-05-17T13:39:31.139Z,43.15
2023-05-17T13:41:57.869Z,43.09
2023-05-17T13:44:24.881Z,42.96
2023-05-17T13:46:51.409Z,43.19
2023-05-17T13:49:18.252Z,42.88
2023-05-17T13:51:45.053Z,42.81
2023-05-17T13:54:11.680Z,42.83
2023-05-17T13:56:38.583Z,42.65
2023-05-17T13:59:05.217Z,42.87
2023-05-17T14:01:31.677Z,43.22
2023-05-17T14:03:59.016Z,43.23
2023-05-17T14:06:25.677Z,43.36
2023-05-17T14:08:53.848Z,43.09
2023-05-17T14:11:21.106Z,42.98
2023-05-17T14:13:47.556Z,43.02
2023-05-17T14:16:14.531Z,42.96
2023-05-17T14:18:41.207Z,42.63
2023-05-17T14:21:08.281Z,42.24
2023-05-17T14:23:35.047Z,42.39
2023-05-17T14:26:02.830Z,42.26
2023-05-17T14:28:29.411Z,42.25
2023-05-17T14:30:56.212Z,42.08
2023-05-17T14:33:22.820Z,42.28
2023-05-17T14:35:49.366Z,42.40
2023-05-17T14:38:15.913Z,42.57
2023-05-17T14:40:42.373Z,42.70
2023-05-17T14:43:08.814Z,42.93
2023-05-17T14:45:35.395Z,42.91
2023-05-17T14:48:01.878Z,42.99
2023-05-17T14:50:28.585Z,42.84
2023-05-17T14:52:55.201Z,42.61
2023-05-17T14:55:21.640Z,42.69
2023-05-17T14:57:48.113Z,42.65
2023-05-17T15:00:14.764Z,42.79
2023-05-17T15:02:41.366Z,42.91
2023-05-17T15:05:08.312Z,42.41
2023-05-17T15:07:34.985Z,42.47
2023-05-17T15:10:03.449Z,42.46
2023-05-17T15:12:30.294Z,42.45
2023-05-17T15:14:57.322Z,42.49
2023-05-17T15:17:24.188Z,42.51
2023-05-17T15:19:51.410Z,42.52
2023-05-17T15:22:18.160Z,42.83
2023-05-17T15:24:44.916Z,42.86
2023-05-17T15:27:15.338Z,43.18
2023-05-17T15:29:42.320Z,43.08
2023-05-17T15:32:09.394Z,43.23
2023-05-17T15:34:36.577Z,43.29
2023-05-17T15:37:03.111Z,43.42
2023-05-17T15:39:29.915Z,42.95
2023-05-17T15:41:56.416Z,43.07
2023-05-17T15:44:23.916Z,42.76
2023-05-17T15:46:50.787Z,42.86
2023-05-17T15:49:17.320Z,43.00
2023-05-17T15:51:43.805Z,43.01
2023-05-17T15:54:10.339Z,43.19
2023-05-17T15:56:38.329Z,43.02
2023-05-17T15:59:05.639Z,42.38
2023-05-17T16:01:32.437Z,42.52
2023-05-17T16:03:58.916Z,42.51
2023-05-17T16:06:25.777Z,42.71
2023-05-17T16:08:52.333Z,42.74
2023-05-17T16:11:18.790Z,42.80
2023-05-17T16:13:45.620Z,42.64
2023-05-17T16:16:13.414Z,42.36
2023-05-17T16:18:40.252Z,42.44
2023-05-17T16:21:07.827Z,42.63
2023-05-17T16:23:34.354Z,42.37
2023-05-17T16:26:00.867Z,42.23
2023-05-17T16:28:27.405Z,42.11
2023-05-17T16:30:54.483Z,41.86
2023-05-17T16:33:21.233Z,41.84
2023-05-17T16:35:48.609Z,41.84
2023-05-17T16:38:15.273Z,41.79
2023-05-17T16:40:41.740Z,41.71
2023-05-17T16:43:08.636Z,41.49
2023-05-17T16:45:35.174Z,41.45
2023-05-17T16:48:01.684Z,41.21
2023-05-17T16:50:28.429Z,41.18
2023-05-17T16:52:55.023Z,41.17
2023-05-17T16:55:21.525Z,41.08
2023-05-17T16:57:47.970Z,41.22
2023-05-17T17:00:14.887Z,41.34
2023-05-17T17:02:41.412Z,41.11
2023-05-17T17:05:08.282Z,41.23
2023-05-17T17:07:34.738Z,41.04
2023-05-17T17:10:01.269Z,40.94
2023-05-17T17:12:27.802Z,40.88
2023-05-17T17:14:54.278Z,40.86
2023-05-17T17:17:21.346Z,40.75
2023-05-17T17:19:47.790Z,40.93
2023-05-17T17:22:15.010Z,40.94
2023-05-17T17:24:41.802Z,40.76
2023-05-17T17:27:08.275Z,40.80
2023-05-17T17:29:34.886Z,40.72
2023-05-17T17:32:01.487Z,40.89
2023-05-17T17:34:28.227Z,40.93
2023-05-17T17:36:54.684Z,40.91
2023-05-17T17:39:22.181Z,40.97
2023-05-17T17:41:48.659Z,40.94
2023-05-17T17:44:15.188Z,41.27
2023-05-17T17:46:41.790Z,41.20
2023-05-17T17:49:08.287Z,41.02
2023-05-17T17:51:34.873Z,41.73
2023-05-17T17:54:03.684Z,41.17
2023-05-17T17:56:30.207Z,41.46
2023-05-17T17:58:57.109Z,41.32
2023-05-17T18:01:23.646Z,41.47
2023-05-17T18:03:50.154Z,41.78
2023-05-17T18:06:16.598Z,41.86
2023-05-17T18:08:43.162Z,41.58
2023-05-17T18:11:09.637Z,41.63
2023-05-17T18:13:36.293Z,41.66
2023-05-17T18:16:02.877Z,41.79
2023-05-17T18:18:30.479Z,41.95
2023-05-17T18:20:57.010Z,41.69
2023-05-17T18:23:24.585Z,41.90
2023-05-17T18:25:51.159Z,41.92
2023-05-17T18:28:21.648Z,42.00
2023-05-17T18:30:53.320Z,41.84
2023-05-17T18:33:19.847Z,41.83
2023-05-17T18:35:46.372Z,41.70
2023-05-17T18:38:12.883Z,41.84
2023-05-17T18:40:39.385Z,41.96
2023-05-17T18:43:06.009Z,42.14
2023-05-17T18:45:36.231Z,42.13
2023-05-17T18:48:03.487Z,42.14
2023-05-17T18:50:30.378Z,42.14
2023-05-17T18:52:57.312Z,42.33
2023-05-17T18:55:23.845Z,42.10
2023-05-17T18:57:50.855Z,42.13
2023-05-17T19:00:17.681Z,42.16
2023-05-17T19:02:44.164Z,42.02
2023-05-17T19:05:10.671Z,42.24
2023-05-17T19:07:37.113Z,42.17
2023-05-17T19:10:04.414Z,42.33
2023-05-17T19:12:31.169Z,42.06
2023-05-17T19:14:57.986Z,42.22
2023-05-17T19:17:24.591Z,42.04
2023-05-17T19:19:51.088Z,42.34
2023-05-17T19:22:17.560Z,42.53
2023-05-17T19:24:44.201Z,42.50
2023-05-17T19:27:11.160Z,42.43
2023-05-17T19:29:37.710Z,42.42
2023-05-17T19:32:04.575Z,42.44
2023-05-17T19:34:31.170Z,42.41
2023-05-17T19:36:58.685Z,42.54
2023-05-17T19:39:25.540Z,42.46
2023-05-17T19:41:51.990Z,42.29
2023-05-17T19:44:18.445Z,42.27
2023-05-17T19:46:45.036Z,42.54
2023-05-17T19:49:12.742Z,42.62
2023-05-17T19:51:39.312Z,42.63
2023-05-17T19:54:06.133Z,42.72
2023-05-17T19:56:32.611Z,42.89
2023-05-17T19:58:59.110Z,42.84
2023-05-17T20:01:26.036Z,42.95
2023-05-17T20:03:52.764Z,42.90
2023-05-17T20:06:19.312Z,42.97
2023-05-17T20:08:46.761Z,43.05
2023-05-17T20:11:13.416Z,43.20
2023-05-17T20:13:40.358Z,43.11
2023-05-17T20:16:12.468Z,43.06
2023-05-17T20:18:42.588Z,42.93
2023-05-17T20:21:10.898Z,42.94
2023-05-17T20:23:37.409Z,43.15
2023-05-17T20:26:04.401Z,43.17
2023-05-17T20:28:30.880Z,43.28
2023-05-17T20:30:57.438Z,43.17
2023-05-17T20:33:26.683Z,43.20
2023-05-17T20:35:53.896Z,43.22
2023-05-17T20:38:21.816Z,43.36
2023-05-17T20:40:48.476Z,43.36
2023-05-17T20:43:16.615Z,43.60
2023-05-17T20:45:43.506Z,43.55
2023-05-17T20:48:10.098Z,43.58
2023-05-17T20:50:36.981Z,43.59
2023-05-17T20:53:03.634Z,43.30
2023-05-17T20:55:30.230Z,43.57
2023-05-17T20:57:56.927Z,43.81
2023-05-17T21:00:24.760Z,43.67
2023-05-17T21:02:51.395Z,43.80
2023-05-17T21:05:17.949Z,43.87
2023-05-17T21:07:46.602Z,43.72
2023-05-17T21:10:13.255Z,43.68
2023-05-17T21:12:39.822Z,43.77
2023-05-17T21:15:15.897Z,43.76
2023-05-17T21:17:43.783Z,43.80
2023-05-17T21:20:11.105Z,43.79
2023-05-17T21:22:37.781Z,43.45
2023-05-17T21:25:04.961Z,43.90
2023-05-17T21:27:33.616Z,43.95
2023-05-17T21:30:01.057Z,43.78
2023-05-17T21:32:27.572Z,43.82
2023-05-17T21:34:54.508Z,43.95
2023-05-17T21:37:21.179Z,43.92
2023-05-17T21:39:47.627Z,43.84
2023-05-17T21:42:14.094Z,43.91
2023-05-17T21:44:40.823Z,43.65
2023-05-17T21:47:07.494Z,44.03
2023-05-17T21:49:34.148Z,43.88
2023-05-17T21:52:00.772Z,44.04
2023-05-17T21:54:27.379Z,44.02
2023-05-17T21:56:53.844Z,43.99
2023-05-17T21:59:20.309Z,43.84
2023-05-17T22:01:46.996Z,44.07
2023-05-17T22:04:13.591Z,44.08
2023-05-17T22:06:40.051Z,44.34
2023-05-17T22:09:06.758Z,44.04
2023-05-17T22:11:33.890Z,44.09
2023-05-17T22:14:00.395Z,44.23
2023-05-17T22:16:26.993Z,44.34
2023-05-17T22:18:53.562Z,44.56
2023-05-17T22:21:20.215Z,44.36
2023-05-17T22:23:46.689Z,44.58
2023-05-17T22:26:13.262Z,44.43
2023-05-17T22:28:39.720Z,44.64
2023-05-17T22:31:07.596Z,44.65
2023-05-17T22:33:35.629Z,44.69
2023-05-17T22:36:03.603Z,44.71
2023-05-17T22:38:30.076Z,44.92
2023-05-17T22:40:56.587Z,44.88
2023-05-17T22:43:23.094Z,44.86
2023-05-17T22:45:49.995Z,45.10
2023-05-17T22:48:16.520Z,44.83
2023-05-17T22:50:43.060Z,45.14
2023-05-17T22:53:11.265Z,45.02
2023-05-17T22:55:37.732Z,45.13
2023-05-17T22:58:04.176Z,45.33
2023-05-17T23:00:30.645Z,45.34
2023-05-17T23:02:57.147Z,45.38
2023-05-17T23:05:23.692Z,45.50
2023-05-17T23:07:50.152Z,45.58
2023-05-17T23:10:16.649Z,45.46
2023-05-17T23:12:43.156Z,45.53
2023-05-17T23:15:10.580Z,45.75
2023-05-17T23:17:38.807Z,45.77
2023-05-17T23:20:08.244Z,45.65
2023-05-17T23:22:34.753Z,45.71
2023-05-17T23:25:03.373Z,45.84
2023-05-17T23:27:30.128Z,45.71
2023-05-17T23:29:57.224Z,45.75
2023-05-17T23:32:23.803Z,45.85
2023-05-17T23:34:50.730Z,45.97
2023-05-17T23:37:17.245Z,45.77
2023-05-17T23:39:43.892Z,45.96
2023-05-17T23:42:10.748Z,45.95
2023-05-17T23:44:43.045Z,45.96
2023-05-17T23:47:12.432Z,45.98
2023-05-17T23:49:39.392Z,45.94
2023-05-17T23:52:10.917Z,46.17
2023-05-17T23:54:41.430Z,46.19
2023-05-17T23:57:08.692Z,46.11
2023-05-17T23:59:36.512Z,46.11
